createdAt,value
2022-10-21T00:00:59.547Z,27.17
2022-10-21T00:03:28.748Z,26.93
2022-10-21T00:05:57.020Z,26.47
2022-10-21T00:08:25.605Z,27.17
2022-10-21T00:10:54.682Z,26.07
2022-10-21T00:13:23.584Z,26.40
2022-10-21T00:16:04.792Z,26.17
2022-10-21T00:18:34.654Z,25.67
2022-10-21T00:21:06.845Z,25.90
2022-10-21T00:23:35.125Z,26.13
2022-10-21T00:26:04.772Z,26.77
2022-10-21T00:28:33.250Z,26.23
2022-10-21T00:31:02.961Z,25.60
2022-10-21T00:33:30.978Z,26.50
2022-10-21T00:36:02.756Z,26.30
2022-10-21T00:38:31.442Z,28.20
2022-10-21T00:40:59.993Z,26.83
2022-10-21T00:43:28.934Z,27.30
2022-10-21T00:46:00.580Z,25.60
2022-10-21T00:48:34.143Z,25.87
2022-10-21T00:51:06.648Z,27.47
2022-10-21T00:53:36.496Z,27.90
2022-10-21T00:56:14.163Z,25.70
2022-10-21T00:58:46.829Z,27.90
2022-10-21T01:01:17.975Z,26.50
2022-10-21T01:03:50.583Z,27.23
2022-10-21T01:06:21.594Z,27.10
2022-10-21T01:08:50.012Z,26.90
2022-10-21T01:11:20.278Z,28.50
2022-10-21T01:14:04.338Z,25.77
2022-10-21T01:16:38.938Z,25.63
2022-10-21T01:19:25.761Z,26.17
2022-10-21T01:21:58.220Z,27.53
2022-10-21T01:24:54.770Z,27.03
2022-10-21T01:27:43.547Z,24.27
2022-10-21T01:30:36.201Z,26.50
2022-10-21T01:33:25.882Z,24.90
2022-10-21T01:35:58.929Z,25.47
2022-10-21T01:38:34.354Z,25.40
2022-10-21T01:41:06.883Z,26.73
2022-10-21T01:43:40.006Z,25.77
2022-10-21T01:46:15.462Z,25.70
2022-10-21T01:48:48.495Z,27.30
2022-10-21T01:51:19.291Z,25.30
2022-10-21T01:53:53.301Z,26.23
2022-10-21T01:56:22.589Z,26.60
2022-10-21T01:58:52.914Z,25.60
2022-10-21T02:01:25.941Z,25.27
2022-10-21T02:03:58.994Z,26.50
2022-10-21T02:06:27.144Z,26.50
2022-10-21T02:08:55.239Z,27.00
2022-10-21T02:11:23.390Z,25.40
2022-10-21T02:13:57.354Z,26.23
2022-10-21T02:16:32.646Z,27.27
2022-10-21T02:19:01.866Z,27.23
2022-10-21T02:21:34.334Z,27.97
2022-10-21T02:24:09.605Z,26.63
2022-10-21T02:26:37.805Z,28.20
2022-10-21T02:29:05.895Z,26.10
2022-10-21T02:31:59.646Z,25.70
2022-10-21T02:34:35.712Z,28.00
2022-10-21T02:37:12.988Z,27.10
2022-10-21T02:39:48.735Z,27.60
2022-10-21T02:42:24.110Z,26.80
2022-10-21T02:44:53.749Z,24.87
2022-10-21T02:47:26.600Z,23.40
2022-10-21T02:49:54.694Z,27.30
2022-10-21T02:52:22.764Z,26.10
2022-10-21T02:54:50.749Z,24.80
2022-10-21T02:57:18.826Z,25.30
2022-10-21T02:59:46.862Z,26.97
2022-10-21T03:02:14.916Z,26.20
2022-10-21T03:04:44.391Z,25.83
2022-10-21T03:07:12.449Z,26.10
2022-10-21T03:09:40.483Z,27.93
2022-10-21T03:12:08.531Z,26.27
2022-10-21T03:14:36.565Z,29.77
2022-10-21T03:17:04.716Z,27.00
2022-10-21T03:19:32.744Z,27.80
2022-10-21T03:22:02.199Z,31.70
2022-10-21T03:24:30.228Z,36.70
2022-10-21T03:26:58.771Z,32.90
2022-10-21T03:29:26.863Z,30.00
2022-10-21T03:31:55.015Z,30.27
2022-10-21T03:34:23.043Z,27.70
2022-10-21T03:36:51.062Z,25.47
2022-10-21T03:39:20.453Z,26.97
2022-10-21T03:41:48.484Z,23.83
2022-10-21T03:44:16.539Z,24.90
2022-10-21T03:46:44.607Z,24.30
2022-10-21T03:49:20.954Z,28.43
2022-10-21T03:51:49.909Z,27.10
2022-10-21T03:54:18.476Z,26.73
2022-10-21T03:56:47.958Z,26.43
2022-10-21T03:59:16.245Z,26.80
2022-10-21T04:01:44.438Z,27.20
2022-10-21T04:04:12.562Z,27.93
2022-10-21T04:06:40.652Z,26.03
2022-10-21T04:09:08.952Z,27.87
2022-10-21T04:11:37.162Z,27.97
2022-10-21T04:14:09.235Z,28.93
2022-10-21T04:16:39.852Z,27.37
2022-10-21T04:19:07.973Z,28.87
2022-10-21T04:21:36.012Z,30.17
2022-10-21T04:24:04.556Z,27.80
2022-10-21T04:26:32.621Z,29.50
2022-10-21T04:29:00.673Z,29.17
2022-10-21T04:31:32.147Z,29.40
2022-10-21T04:34:00.514Z,29.37
2022-10-21T04:36:28.632Z,29.50
2022-10-21T04:38:56.680Z,29.70
2022-10-21T04:41:24.679Z,28.67
2022-10-21T04:43:52.784Z,27.93
2022-10-21T04:46:21.357Z,26.90
2022-10-21T04:48:50.814Z,30.60
2022-10-21T04:51:22.010Z,29.57
2022-10-21T04:53:50.152Z,30.57
2022-10-21T04:56:18.278Z,30.60
2022-10-21T04:58:46.470Z,30.47
2022-10-21T05:01:14.574Z,30.00
2022-10-21T05:03:42.666Z,30.90
2022-10-21T05:06:12.162Z,30.93
2022-10-21T05:08:40.277Z,28.83
2022-10-21T05:11:08.378Z,30.90
2022-10-21T05:13:36.494Z,29.70
2022-10-21T05:16:05.898Z,30.40
2022-10-21T05:18:34.010Z,31.80
2022-10-21T05:21:02.157Z,28.50
2022-10-21T05:23:31.834Z,33.27
2022-10-21T05:25:59.882Z,32.20
2022-10-21T05:28:27.914Z,31.37
2022-10-21T05:30:56.087Z,29.40
2022-10-21T05:33:24.102Z,31.27
2022-10-21T05:36:00.848Z,32.47
2022-10-21T05:38:31.502Z,29.70
2022-10-21T05:41:00.084Z,30.50
2022-10-21T05:43:29.084Z,28.70
2022-10-21T05:45:57.375Z,29.30
2022-10-21T05:48:26.033Z,28.07
2022-10-21T05:50:55.640Z,27.37
2022-10-21T05:53:27.333Z,28.10
2022-10-21T05:56:02.173Z,29.17
2022-10-21T05:58:31.761Z,29.00
2022-10-21T06:01:02.443Z,28.70
2022-10-21T06:03:32.387Z,28.47
2022-10-21T06:06:01.657Z,36.77
2022-10-21T06:08:31.834Z,34.33
2022-10-21T06:11:06.465Z,30.17
2022-10-21T06:13:34.884Z,30.90
2022-10-21T06:16:03.260Z,29.47
2022-10-21T06:18:31.324Z,30.10
2022-10-21T06:20:59.666Z,28.90
2022-10-21T06:23:29.891Z,33.20
2022-10-21T06:25:59.322Z,29.23
2022-10-21T06:28:30.762Z,32.17
2022-10-21T06:30:58.891Z,32.73
2022-10-21T06:33:27.540Z,34.10
2022-10-21T06:35:56.136Z,31.80
2022-10-21T06:38:25.953Z,31.50
2022-10-21T06:40:54.117Z,31.97
2022-10-21T06:45:51.509Z,30.27
2022-10-21T06:48:19.565Z,29.50
2022-10-21T06:50:47.577Z,28.50
2022-10-21T06:53:15.658Z,31.53
2022-10-21T06:55:43.834Z,28.80
2022-10-21T06:58:11.876Z,30.40
2022-10-21T07:00:39.877Z,29.10
2022-10-21T07:03:09.346Z,31.50
2022-10-21T07:05:37.305Z,30.30
2022-10-21T07:08:05.935Z,31.07
2022-10-21T07:10:34.667Z,31.83
2022-10-21T07:13:02.686Z,29.90
2022-10-21T07:15:30.969Z,32.13
2022-10-21T07:18:01.039Z,33.00
2022-10-21T07:20:30.506Z,32.80
2022-10-21T07:22:58.550Z,32.47
2022-10-21T07:25:26.683Z,33.57
2022-10-21T07:27:54.762Z,32.30
2022-10-21T07:30:23.581Z,33.57
2022-10-21T07:32:52.340Z,32.33
2022-10-21T07:35:20.362Z,32.73
2022-10-21T07:37:49.786Z,34.03
2022-10-21T07:40:17.930Z,34.83
2022-10-21T07:42:47.958Z,28.83
2022-10-21T07:45:16.323Z,33.80
2022-10-21T07:47:44.463Z,34.80
2022-10-21T07:50:12.746Z,35.73
2022-10-21T07:52:51.911Z,32.10
2022-10-21T07:55:30.937Z,32.57
2022-10-21T07:57:59.395Z,33.37
2022-10-21T08:00:27.647Z,34.40
2022-10-21T08:02:56.448Z,32.57
2022-10-21T08:05:24.851Z,34.47
2022-10-21T08:07:53.186Z,31.27
2022-10-21T08:10:21.303Z,33.80
2022-10-21T08:12:50.859Z,31.10
2022-10-21T08:15:19.149Z,33.63
2022-10-21T08:17:47.320Z,31.93
2022-10-21T08:20:15.449Z,32.17
2022-10-21T08:22:43.450Z,33.67
2022-10-21T08:25:16.669Z,33.90
2022-10-21T08:27:44.701Z,34.50
2022-10-21T08:30:15.566Z,32.60
2022-10-21T08:32:44.758Z,31.77
2022-10-21T08:35:12.852Z,31.13
2022-10-21T08:37:40.882Z,31.80
2022-10-21T08:40:11.164Z,31.13
2022-10-21T08:42:42.570Z,30.43
2022-10-21T08:45:20.351Z,32.00
2022-10-21T08:47:54.963Z,29.20
2022-10-21T08:50:25.826Z,28.70
2022-10-21T08:52:58.324Z,30.20
2022-10-21T08:55:33.615Z,31.00
2022-10-21T08:58:02.227Z,31.40
2022-10-21T09:00:37.128Z,29.60
2022-10-21T09:03:18.995Z,31.43
2022-10-21T09:06:18.585Z,30.70
2022-10-21T09:09:02.657Z,31.93
2022-10-21T09:11:47.695Z,29.57
2022-10-21T09:14:50.905Z,29.83
2022-10-21T09:17:52.575Z,30.20
2022-10-21T09:20:33.206Z,27.93
2022-10-21T09:23:12.084Z,27.20
2022-10-21T09:25:47.718Z,29.60
2022-10-21T09:28:17.121Z,26.93
2022-10-21T09:30:46.173Z,26.10
2022-10-21T09:33:20.712Z,26.90
2022-10-21T09:35:51.989Z,27.77
2022-10-21T09:38:25.925Z,26.33
2022-10-21T09:41:03.126Z,25.23
2022-10-21T09:43:31.749Z,24.57
2022-10-21T09:46:00.083Z,24.43
2022-10-21T09:48:41.756Z,25.47
2022-10-21T09:51:25.672Z,24.50
2022-10-21T09:53:56.710Z,22.70
2022-10-21T09:56:30.176Z,21.57
2022-10-21T09:59:07.789Z,21.30
2022-10-21T10:01:38.148Z,18.70
2022-10-21T10:04:14.421Z,19.63
2022-10-21T10:06:44.845Z,18.30
2022-10-21T10:09:18.924Z,18.50
2022-10-21T10:11:53.654Z,17.50
2022-10-21T10:14:31.732Z,16.63
2022-10-21T10:17:25.766Z,16.23
2022-10-21T10:20:24.076Z,15.50
2022-10-21T10:23:19.326Z,13.30
2022-10-21T10:25:52.547Z,13.27
2022-10-21T10:28:24.782Z,14.33
2022-10-21T10:30:56.402Z,11.47
2022-10-21T10:33:29.076Z,12.27
2022-10-21T10:35:59.145Z,11.77
2022-10-21T10:38:30.813Z,11.07
2022-10-21T10:41:07.894Z,10.20
2022-10-21T10:43:38.197Z,10.60
2022-10-21T10:46:10.156Z,10.00
2022-10-21T10:48:43.535Z,10.63
2022-10-21T10:51:25.705Z,10.90
2022-10-21T10:54:02.427Z,10.27
2022-10-21T10:56:34.247Z,11.00
2022-10-21T10:59:11.704Z,9.67
2022-10-21T11:01:45.935Z,9.10
2022-10-21T11:04:20.717Z,9.67
2022-10-21T11:06:53.447Z,9.17
2022-10-21T11:09:25.127Z,9.50
2022-10-21T11:11:56.505Z,8.40
2022-10-21T11:14:24.789Z,9.03
2022-10-21T11:17:01.261Z,8.73
2022-10-21T11:19:41.136Z,7.57
2022-10-21T11:22:15.031Z,8.57
2022-10-21T11:24:55.317Z,8.40
2022-10-21T11:27:36.459Z,8.43
2022-10-21T11:30:10.952Z,7.70
2022-10-21T11:32:53.932Z,8.07
2022-10-21T11:35:39.030Z,7.80
2022-10-21T11:38:30.438Z,8.70
2022-10-21T11:41:08.835Z,7.67
2022-10-21T11:43:46.750Z,8.70
2022-10-21T11:46:21.947Z,7.73
2022-10-21T11:49:06.282Z,7.47
2022-10-21T11:51:44.880Z,8.67
2022-10-21T11:54:41.558Z,7.80
2022-10-21T11:57:20.901Z,7.83
2022-10-21T12:00:13.205Z,8.97
2022-10-21T12:02:46.266Z,9.17
2022-10-21T12:05:26.250Z,9.00
2022-10-21T12:08:12.312Z,7.13
2022-10-21T12:10:46.470Z,8.67
2022-10-21T12:13:20.563Z,8.60
2022-10-21T12:15:51.728Z,8.60
2022-10-21T12:18:23.067Z,7.97
2022-10-21T12:20:54.062Z,7.90
2022-10-21T12:23:26.544Z,7.83
2022-10-21T12:26:05.108Z,7.10
2022-10-21T12:28:38.719Z,8.10
2022-10-21T12:31:23.592Z,7.43
2022-10-21T12:33:52.247Z,8.33
2022-10-21T12:36:36.753Z,6.90
2022-10-21T12:39:09.617Z,7.20
2022-10-21T12:41:38.967Z,7.80
2022-10-21T12:44:25.046Z,7.10
2022-10-21T12:46:55.885Z,7.67
2022-10-21T12:49:27.228Z,8.60
2022-10-21T12:52:06.153Z,7.47
2022-10-21T12:54:43.194Z,7.70
2022-10-21T12:57:22.454Z,7.40
2022-10-21T12:59:50.505Z,7.70
2022-10-21T13:02:28.405Z,8.20
2022-10-21T13:04:58.686Z,7.80
2022-10-21T13:07:35.520Z,8.77
2022-10-21T13:10:38.076Z,11.40
2022-10-21T13:13:35.461Z,7.87
2022-10-21T13:16:36.981Z,8.40
2022-10-21T13:19:06.941Z,8.33
2022-10-21T13:21:38.557Z,8.70
2022-10-21T13:24:16.530Z,9.77
2022-10-21T13:26:51.560Z,9.23
2022-10-21T13:29:42.496Z,8.33
2022-10-21T13:32:25.102Z,9.43
2022-10-21T13:35:31.860Z,8.50
2022-10-21T13:38:05.612Z,8.60
2022-10-21T13:40:39.481Z,8.10
2022-10-21T13:43:16.945Z,9.47
2022-10-21T13:45:49.899Z,9.20
2022-10-21T13:48:19.841Z,9.20
2022-10-21T13:50:50.093Z,9.20
2022-10-21T13:53:28.492Z,8.93
2022-10-21T13:55:58.762Z,10.30
2022-10-21T13:58:30.254Z,8.93
2022-10-21T14:00:59.236Z,9.27
2022-10-21T14:03:28.015Z,9.47
2022-10-21T14:05:59.525Z,9.17
2022-10-21T14:08:31.970Z,9.10
2022-10-21T14:11:02.787Z,9.13
2022-10-21T14:13:37.358Z,8.20
2022-10-21T14:16:07.919Z,9.93
2022-10-21T14:18:39.353Z,9.80
2022-10-21T14:21:09.163Z,9.90
2022-10-21T14:23:37.363Z,8.87
2022-10-21T14:26:08.277Z,9.50
2022-10-21T14:28:38.570Z,9.90
2022-10-21T14:33:39.352Z,10.37
2022-10-21T14:36:11.036Z,9.43
2022-10-21T14:38:43.252Z,9.07
2022-10-21T14:41:18.458Z,10.77
2022-10-21T14:43:50.449Z,10.33
2022-10-21T14:46:18.852Z,10.13
2022-10-21T14:48:49.734Z,10.20
2022-10-21T14:51:21.402Z,10.50
2022-10-21T14:53:53.396Z,9.50
2022-10-21T14:56:25.283Z,11.90
2022-10-21T14:58:58.121Z,13.57
2022-10-21T15:01:26.773Z,13.37
2022-10-21T15:03:57.154Z,13.43
2022-10-21T15:06:27.391Z,13.30
2022-10-21T15:09:15.522Z,15.53
2022-10-21T15:11:45.235Z,14.87
2022-10-21T15:14:33.129Z,13.07
2022-10-21T15:17:04.104Z,11.50
2022-10-21T15:19:43.935Z,10.70
2022-10-21T15:22:27.510Z,19.70
2022-10-21T15:24:59.882Z,17.10
2022-10-21T15:27:35.144Z,17.53
2022-10-21T15:30:18.744Z,17.67
2022-10-21T15:32:47.321Z,12.83
2022-10-21T15:35:17.354Z,11.87
2022-10-21T15:37:48.917Z,11.03
2022-10-21T15:40:17.912Z,18.90
2022-10-21T15:42:47.106Z,12.80
2022-10-21T15:45:19.193Z,10.60
2022-10-21T15:47:52.421Z,10.33
2022-10-21T15:50:22.196Z,9.33
2022-10-21T15:52:50.327Z,10.40
2022-10-21T15:55:18.423Z,9.47
2022-10-21T15:57:46.583Z,9.53
2022-10-21T16:00:20.297Z,10.23
2022-10-21T16:02:51.514Z,11.47
2022-10-21T16:05:21.284Z,11.90
2022-10-21T16:07:49.533Z,13.57
2022-10-21T16:10:21.042Z,13.33
2022-10-21T16:12:49.308Z,12.57
2022-10-21T16:15:20.434Z,14.80
2022-10-21T16:17:50.992Z,12.40
2022-10-21T16:20:22.260Z,11.83
2022-10-21T16:22:50.441Z,10.90
2022-10-21T16:25:19.178Z,12.23
2022-10-21T16:28:02.727Z,14.90
2022-10-21T16:30:35.867Z,18.00
2022-10-21T16:33:04.114Z,12.43
2022-10-21T16:35:32.555Z,13.20
2022-10-21T16:38:00.640Z,12.10
2022-10-21T16:40:32.809Z,12.77
2022-10-21T16:43:00.939Z,12.57
2022-10-21T16:45:32.502Z,12.20
2022-10-21T16:48:04.464Z,11.27
2022-10-21T16:50:39.398Z,15.70
2022-10-21T16:53:08.034Z,14.03
2022-10-21T16:55:36.157Z,13.80
2022-10-21T16:58:04.422Z,13.40
2022-10-21T17:00:34.080Z,13.97
2022-10-21T17:03:02.306Z,12.53
2022-10-21T17:05:30.420Z,12.87
2022-10-21T17:07:59.970Z,12.80
2022-10-21T17:10:28.375Z,18.10
2022-10-21T17:12:59.259Z,25.13
2022-10-21T17:15:28.775Z,21.83
2022-10-21T17:17:59.207Z,20.50
2022-10-21T17:20:30.339Z,22.10
2022-10-21T17:22:58.683Z,27.77
2022-10-21T17:25:27.247Z,25.67
2022-10-21T17:27:55.322Z,23.77
2022-10-21T17:30:23.775Z,20.60
2022-10-21T17:32:51.937Z,17.93
2022-10-21T17:35:21.434Z,18.13
2022-10-21T17:37:50.662Z,17.00
2022-10-21T17:40:21.111Z,20.57
2022-10-21T17:42:49.817Z,17.97
2022-10-21T17:45:19.442Z,19.13
2022-10-21T17:47:47.507Z,17.77
2022-10-21T17:50:18.494Z,18.13
2022-10-21T17:52:47.847Z,17.90
2022-10-21T17:55:15.854Z,17.10
2022-10-21T17:57:44.790Z,18.67
2022-10-21T18:00:13.949Z,21.73
2022-10-21T18:02:42.487Z,24.50
2022-10-21T18:05:11.108Z,19.43
2022-10-21T18:07:39.629Z,18.30
2022-10-21T18:10:10.660Z,17.63
2022-10-21T18:12:39.020Z,16.97
2022-10-21T18:15:08.042Z,18.43
2022-10-21T18:17:37.209Z,17.17
2022-10-21T18:20:07.025Z,25.20
2022-10-21T18:22:35.094Z,30.10
2022-10-21T18:25:03.132Z,21.03
2022-10-21T18:27:32.653Z,18.50
2022-10-21T18:30:00.770Z,18.53
2022-10-21T18:32:28.765Z,21.80
2022-10-21T18:34:56.819Z,18.67
2022-10-21T18:37:24.874Z,14.60
2022-10-21T18:39:56.665Z,14.07
2022-10-21T18:42:27.405Z,15.17
2022-10-21T18:44:56.768Z,14.80
2022-10-21T18:47:24.831Z,16.53
2022-10-21T18:49:53.562Z,17.63
2022-10-21T18:52:21.596Z,16.47
2022-10-21T18:54:49.608Z,16.20
2022-10-21T18:57:17.795Z,15.77
2022-10-21T18:59:45.873Z,14.47
2022-10-21T19:02:21.605Z,15.10
2022-10-21T19:04:50.059Z,16.07
2022-10-21T19:07:18.980Z,19.00
2022-10-21T19:09:47.795Z,15.93
2022-10-21T19:12:19.662Z,15.30
2022-10-21T19:14:50.681Z,16.67
2022-10-21T19:17:20.214Z,18.53
2022-10-21T19:19:48.310Z,19.20
2022-10-21T19:22:19.339Z,17.47
2022-10-21T19:24:47.426Z,17.93
2022-10-21T19:27:15.444Z,19.70
2022-10-21T19:29:44.226Z,21.10
2022-10-21T19:32:13.494Z,19.60
2022-10-21T19:34:43.051Z,18.73
2022-10-21T19:37:12.529Z,18.40
2022-10-21T19:39:40.731Z,18.40
2022-10-21T19:42:08.781Z,17.63
2022-10-21T19:44:36.980Z,20.17
2022-10-21T19:47:05.038Z,19.27
2022-10-21T19:49:33.062Z,19.00
2022-10-21T19:52:03.176Z,18.73
2022-10-21T19:54:31.190Z,20.70
2022-10-21T19:56:59.306Z,21.13
2022-10-21T19:59:27.353Z,18.80
2022-10-21T20:01:55.410Z,17.50
2022-10-21T20:04:24.749Z,18.47
2022-10-21T20:06:52.875Z,17.70
2022-10-21T20:09:22.294Z,17.67
2022-10-21T20:11:50.360Z,17.70
2022-10-21T20:14:18.521Z,15.27
2022-10-21T20:16:50.061Z,16.80
2022-10-21T20:19:18.261Z,18.10
2022-10-21T20:21:46.437Z,15.20
2022-10-21T20:24:16.049Z,14.70
2022-10-21T20:26:49.068Z,13.60
2022-10-21T20:29:17.731Z,14.10
2022-10-21T20:31:46.050Z,14.17
2022-10-21T20:34:15.008Z,14.30
2022-10-21T20:36:43.137Z,15.20
2022-10-21T20:39:12.020Z,14.77
2022-10-21T20:41:40.894Z,16.97
2022-10-21T20:44:14.017Z,19.20
2022-10-21T20:46:42.064Z,16.70
2022-10-21T20:49:10.824Z,17.40
2022-10-21T20:51:42.381Z,16.97
2022-10-21T20:54:14.638Z,16.80
2022-10-21T20:56:43.406Z,15.77
2022-10-21T20:59:15.913Z,15.23
2022-10-21T21:01:46.939Z,16.67
2022-10-21T21:04:17.838Z,15.07
2022-10-21T21:06:48.008Z,17.00
2022-10-21T21:09:57.447Z,15.50
2022-10-21T21:12:07.218Z,16.17
2022-10-21T21:14:36.892Z,16.93
2022-10-21T21:17:05.500Z,14.63
2022-10-21T21:19:51.369Z,14.23
2022-10-21T21:22:24.609Z,15.63
2022-10-21T21:24:52.670Z,15.50
2022-10-21T21:27:20.764Z,13.73
2022-10-21T21:29:50.286Z,15.60
2022-10-21T21:32:18.968Z,15.40
2022-10-21T21:34:48.982Z,15.70
2022-10-21T21:37:17.765Z,15.40
2022-10-21T21:39:45.907Z,18.63
2022-10-21T21:42:13.968Z,17.93
2022-10-21T21:44:42.397Z,19.57
2022-10-21T21:47:11.826Z,18.40
2022-10-21T21:49:39.829Z,18.40
2022-10-21T21:52:07.897Z,18.50
2022-10-21T21:54:35.965Z,18.97
2022-10-21T21:57:26.907Z,17.00
2022-10-21T21:59:52.065Z,16.17
2022-10-21T22:02:21.493Z,16.83
2022-10-21T22:04:49.561Z,16.40
2022-10-21T22:07:17.718Z,16.57
2022-10-21T22:09:45.715Z,16.47
2022-10-21T22:12:15.020Z,16.40
2022-10-21T22:14:43.505Z,16.00
2022-10-21T22:17:11.600Z,16.43
2022-10-21T22:19:40.991Z,16.17
2022-10-21T22:22:09.049Z,15.07
2022-10-21T22:24:37.510Z,15.40
2022-10-21T22:27:05.997Z,16.57
2022-10-21T22:29:34.129Z,16.00
2022-10-21T22:32:02.141Z,15.20
2022-10-21T22:34:30.257Z,16.57
2022-10-21T22:37:00.098Z,16.90
2022-10-21T22:39:28.162Z,17.47
2022-10-21T22:41:56.201Z,16.53
2022-10-21T22:44:24.275Z,17.40
2022-10-21T22:46:52.270Z,15.70
2022-10-21T22:49:20.393Z,16.20
2022-10-21T22:51:48.585Z,15.73
2022-10-21T22:54:36.047Z,15.87
2022-10-21T22:57:08.995Z,15.07
2022-10-21T22:59:38.005Z,15.87
2022-10-21T23:02:06.137Z,15.83
2022-10-21T23:04:34.223Z,14.60
2022-10-21T23:07:02.289Z,14.23
2022-10-21T23:09:31.703Z,14.50
2022-10-21T23:11:59.729Z,14.20
2022-10-21T23:14:28.151Z,14.80
2022-10-21T23:16:56.202Z,14.10
2022-10-21T23:19:24.226Z,14.50
2022-10-21T23:21:52.277Z,15.40
2022-10-21T23:24:20.362Z,14.80
2022-10-21T23:26:49.749Z,15.27
2022-10-21T23:29:17.841Z,13.87
2022-10-21T23:31:45.870Z,14.47
2022-10-21T23:34:13.906Z,15.67
2022-10-21T23:36:41.980Z,14.27
2022-10-21T23:39:12.447Z,14.80
2022-10-21T23:41:40.543Z,14.60
2022-10-21T23:44:09.961Z,15.27
2022-10-21T23:46:38.061Z,16.53
2022-10-21T23:49:06.700Z,15.90
2022-10-21T23:51:35.224Z,16.90
2022-10-21T23:54:03.257Z,16.40
2022-10-21T23:56:32.292Z,15.27
2022-10-21T23:59:01.078Z,14.73
